sensor_id;sensor_type;location;lat;lon;timestamp;pressure;altitude;pressure_sealevel;temperature
49557;BMP280;35462;45.048;7.666;2023-04-24T00:01:16;97995.47;;;16.99
49557;BMP280;35462;45.048;7.666;2023-04-24T00:16:20;97998.44;;;17.01
49557;BMP280;35462;45.048;7.666;2023-04-24T00:31:24;98009.94;;;17.07
49557;BMP280;35462;45.048;7.666;2023-04-24T00:46:28;97981.16;;;16.87
49557;BMP280;35462;45.048;7.666;2023-04-24T01:01:33;97964.41;;;16.73
49557;BMP280;35462;45.048;7.666;2023-04-24T01:16:37;97955.94;;;16.74
49557;BMP280;35462;45.048;7.666;2023-04-24T01:31:42;97945.25;;;16.74
49557;BMP280;35462;45.048;7.666;2023-04-24T01:46:46;97952.25;;;16.72
49557;BMP280;35462;45.048;7.666;2023-04-24T02:01:50;97952.72;;;16.70
49557;BMP280;35462;45.048;7.666;2023-04-24T02:16:56;97967.38;;;16.60
49557;BMP280;35462;45.048;7.666;2023-04-24T02:32:00;97945.44;;;16.56
49557;BMP280;35462;45.048;7.666;2023-04-24T02:47:04;97957.59;;;16.43
49557;BMP280;35462;45.048;7.666;2023-04-24T03:02:08;97951.34;;;16.31
49557;BMP280;35462;45.048;7.666;2023-04-24T03:17:11;97909.66;;;16.10
49557;BMP280;35462;45.048;7.666;2023-04-24T03:32:15;97913.09;;;15.88
49557;BMP280;35462;45.048;7.666;2023-04-24T03:47:20;97921.75;;;15.83
49557;BMP280;35462;45.048;7.666;2023-04-24T04:02:25;97930.31;;;15.87
49557;BMP280;35462;45.048;7.666;2023-04-24T04:17:29;97929.09;;;15.73
49557;BMP280;35462;45.048;7.666;2023-04-24T04:32:35;97926.34;;;15.59
49557;BMP280;35462;45.048;7.666;2023-04-24T04:47:40;97941.78;;;15.64
49557;BMP280;35462;45.048;7.666;2023-04-24T05:02:46;97960.09;;;15.71
49557;BMP280;35462;45.048;7.666;2023-04-24T05:17:50;97963.16;;;15.78
49557;BMP280;35462;45.048;7.666;2023-04-24T05:32:54;97982.31;;;16.00
49557;BMP280;35462;45.048;7.666;2023-04-24T05:47:58;97985.75;;;16.29
49557;BMP280;35462;45.048;7.666;2023-04-24T06:03:02;98005.53;;;16.75
49557;BMP280;35462;45.048;7.666;2023-04-24T06:18:08;98003.88;;;18.71
49557;BMP280;35462;45.048;7.666;2023-04-24T06:33:15;97994.44;;;22.76
49557;BMP280;35462;45.048;7.666;2023-04-24T06:48:19;97979.50;;;26.17
49557;BMP280;35462;45.048;7.666;2023-04-24T07:03:23;98004.91;;;28.72
49557;BMP280;35462;45.048;7.666;2023-04-24T07:18:27;97997.16;;;29.46
49557;BMP280;35462;45.048;7.666;2023-04-24T07:33:31;97987.78;;;27.23
49557;BMP280;35462;45.048;7.666;2023-04-24T07:48:36;97986.00;;;26.14
49557;BMP280;35462;45.048;7.666;2023-04-24T08:03:40;97994.69;;;25.79
49557;BMP280;35462;45.048;7.666;2023-04-24T08:18:44;97995.25;;;25.98
49557;BMP280;35462;45.048;7.666;2023-04-24T08:33:47;97982.91;;;25.56
49557;BMP280;35462;45.048;7.666;2023-04-24T08:48:52;97992.88;;;25.61
49557;BMP280;35462;45.048;7.666;2023-04-24T09:03:56;97983.16;;;25.66
49557;BMP280;35462;45.048;7.666;2023-04-24T09:19:01;98002.25;;;25.60
49557;BMP280;35462;45.048;7.666;2023-04-24T09:34:06;97999.44;;;25.20
49557;BMP280;35462;45.048;7.666;2023-04-24T09:49:13;97991.41;;;24.89
49557;BMP280;35462;45.048;7.666;2023-04-24T10:04:20;97985.66;;;24.53
49557;BMP280;35462;45.048;7.666;2023-04-24T10:19:25;97977.84;;;24.63
49557;BMP280;35462;45.048;7.666;2023-04-24T10:34:29;97968.88;;;24.55
49557;BMP280;35462;45.048;7.666;2023-04-24T10:49:33;97963.38;;;24.47
49557;BMP280;35462;45.048;7.666;2023-04-24T11:04:37;97933.59;;;24.60
49557;BMP280;35462;45.048;7.666;2023-04-24T11:19:41;97921.50;;;24.74
49557;BMP280;35462;45.048;7.666;2023-04-24T11:34:47;97891.28;;;24.70
49557;BMP280;35462;45.048;7.666;2023-04-24T11:49:51;97884.00;;;24.91
49557;BMP280;35462;45.048;7.666;2023-04-24T12:04:55;97877.59;;;24.89
49557;BMP280;35462;45.048;7.666;2023-04-24T12:20:03;97867.06;;;24.85
49557;BMP280;35462;45.048;7.666;2023-04-24T12:51:09;97859.47;;;24.96
49557;BMP280;35462;45.048;7.666;2023-04-24T13:06:13;97841.56;;;24.94
49557;BMP280;35462;45.048;7.666;2023-04-24T13:21:17;97836.97;;;25.01
49557;BMP280;35462;45.048;7.666;2023-04-24T13:36:20;97833.84;;;24.97
49557;BMP280;35462;45.048;7.666;2023-04-24T13:51:25;97815.19;;;24.94
49557;BMP280;35462;45.048;7.666;2023-04-24T14:06:30;97807.69;;;25.00
49557;BMP280;35462;45.048;7.666;2023-04-24T14:21:34;97795.63;;;24.88
49557;BMP280;35462;45.048;7.666;2023-04-24T14:36:38;97810.94;;;24.86
49557;BMP280;35462;45.048;7.666;2023-04-24T14:51:42;97806.38;;;24.81
49557;BMP280;35462;45.048;7.666;2023-04-24T15:06:46;97819.63;;;24.71
49557;BMP280;35462;45.048;7.666;2023-04-24T15:21:50;97807.44;;;24.52
49557;BMP280;35462;45.048;7.666;2023-04-24T15:36:54;97811.50;;;24.45
49557;BMP280;35462;45.048;7.666;2023-04-24T15:51:58;97815.91;;;24.35
49557;BMP280;35462;45.048;7.666;2023-04-24T16:07:02;97809.25;;;24.24
49557;BMP280;35462;45.048;7.666;2023-04-24T16:22:06;97818.63;;;24.10
49557;BMP280;35462;45.048;7.666;2023-04-24T16:37:09;97816.50;;;23.90
49557;BMP280;35462;45.048;7.666;2023-04-24T16:52:14;97828.28;;;23.61
49557;BMP280;35462;45.048;7.666;2023-04-24T17:07:19;97833.34;;;23.52
49557;BMP280;35462;45.048;7.666;2023-04-24T17:22:23;97822.44;;;23.26
49557;BMP280;35462;45.048;7.666;2023-04-24T17:37:27;97840.78;;;23.14
49557;BMP280;35462;45.048;7.666;2023-04-24T17:52:31;97848.72;;;22.89
49557;BMP280;35462;45.048;7.666;2023-04-24T18:07:34;97847.06;;;22.62
49557;BMP280;35462;45.048;7.666;2023-04-24T18:22:39;97858.25;;;22.47
49557;BMP280;35462;45.048;7.666;2023-04-24T18:37:43;97881.69;;;22.34
49557;BMP280;35462;45.048;7.666;2023-04-24T18:52:48;97898.94;;;22.26
49557;BMP280;35462;45.048;7.666;2023-04-24T19:07:51;97931.38;;;22.20
49557;BMP280;35462;45.048;7.666;2023-04-24T19:22:55;97944.69;;;22.07
49557;BMP280;35462;45.048;7.666;2023-04-24T19:38:00;97955.38;;;21.89
49557;BMP280;35462;45.048;7.666;2023-04-24T19:53:04;97979.25;;;21.69
49557;BMP280;35462;45.048;7.666;2023-04-24T20:08:09;97998.38;;;21.65
49557;BMP280;35462;45.048;7.666;2023-04-24T20:23:13;98013.94;;;21.32
49557;BMP280;35462;45.048;7.666;2023-04-24T20:38:17;98027.91;;;21.25
49557;BMP280;35462;45.048;7.666;2023-04-24T20:53:21;98038.94;;;21.21
49557;BMP280;35462;45.048;7.666;2023-04-24T21:08:25;98034.03;;;21.14
49557;BMP280;35462;45.048;7.666;2023-04-24T21:23:29;98028.44;;;21.02
49557;BMP280;35462;45.048;7.666;2023-04-24T21:38:33;98020.13;;;20.72
49557;BMP280;35462;45.048;7.666;2023-04-24T21:53:37;98008.63;;;20.77
49557;BMP280;35462;45.048;7.666;2023-04-24T22:08:41;98011.81;;;20.70
49557;BMP280;35462;45.048;7.666;2023-04-24T22:23:46;98006.44;;;20.59
49557;BMP280;35462;45.048;7.666;2023-04-24T22:38:50;98012.78;;;20.46
49557;BMP280;35462;45.048;7.666;2023-04-24T22:53:54;98009.81;;;20.22
49557;BMP280;35462;45.048;7.666;2023-04-24T23:08:58;98024.94;;;20.08
49557;BMP280;35462;45.048;7.666;2023-04-24T23:24:02;98020.00;;;19.96
49557;BMP280;35462;45.048;7.666;2023-04-24T23:39:06;98025.13;;;19.94
49557;BMP280;35462;45.048;7.666;2023-04-24T23:54:10;98027.00;;;19.77
